Time;durP1;ratioP1;P1;durP2;ratioP2;P2;SDS_P1;SDS_P2;PMS_P1;PMS_P2;Temp;Humidity;BMP_temperature;BMP_pressure;BME280_temperature;BME280_humidity;BME280_pressure;Samples;Min_cycle;Max_cycle;Signal;HPM_P1;HPM_P2
2022/05/15 00:00:43;;;;;;;4.57;3.50;;;;;;;12.79;65.38;99524.41;4471073;32;34180;-81
2022/05/15 00:03:16;;;;;;;4.75;3.28;;;;;;;12.40;66.21;99521.53;4453119;32;34885;-81
2022/05/15 00:05:44;;;;;;;6.97;3.67;;;;;;;12.37;67.01;99521.56;4457037;32;35304;-81
2022/05/15 00:08:14;;;;;;;8.77;3.50;;;;;;;11.71;69.61;99512.87;4461413;32;34445;-81
2022/05/15 00:10:43;;;;;;;5.15;3.25;;;;;;;11.18;72.24;99526.50;4455258;32;33391;-81
2022/05/15 00:13:11;;;;;;;4.50;3.45;;;;;;;11.62;70.58;99523.44;4454735;32;34144;-81
2022/05/15 00:15:40;;;;;;;6.28;3.65;;;;;;;11.75;69.89;99522.41;4454100;32;35796;-81
2022/05/15 00:18:08;;;;;;;5.82;3.62;;;;;;;12.26;68.50;99521.75;4448693;32;34466;-81
2022/05/15 00:20:39;;;;;;;13.23;5.45;;;;;;;11.38;71.26;99526.31;4457131;32;33934;-81
2022/05/15 00:23:09;;;;;;;8.90;4.37;;;;;;;11.77;70.00;99518.03;4439986;32;34958;-81
2022/05/15 00:25:38;;;;;;;4.53;3.35;;;;;;;11.47;70.86;99517.53;4441159;32;35063;-81
2022/05/15 00:28:07;;;;;;;5.37;3.67;;;;;;;12.17;68.17;99517.50;4447604;32;34335;-81
2022/05/15 00:30:36;;;;;;;6.22;4.15;;;;;;;12.14;68.71;99517.56;4456791;32;34164;-81
2022/05/15 00:33:04;;;;;;;6.47;3.87;;;;;;;12.10;68.50;99515.88;4455431;32;33916;-81
2022/05/15 00:35:35;;;;;;;5.55;3.83;;;;;;;12.04;69.05;99516.84;4457061;32;34973;-81
2022/05/15 00:38:05;;;;;;;7.18;4.22;;;;;;;12.24;68.50;99506.09;4455544;32;34258;-81
2022/05/15 00:40:34;;;;;;;4.95;3.40;;;;;;;11.58;70.53;99507.81;4461740;32;34283;-81
2022/05/15 00:43:02;;;;;;;6.22;4.12;;;;;;;11.98;69.79;99509.06;4450484;32;34030;-81
2022/05/15 00:45:30;;;;;;;6.20;3.37;;;;;;;12.03;69.29;99515.09;4455070;32;35039;-81
2022/05/15 00:47:58;;;;;;;4.75;3.28;;;;;;;12.58;68.13;99515.16;4459418;32;34521;-81
2022/05/15 00:50:29;;;;;;;7.75;3.80;;;;;;;12.52;68.04;99514.38;4452245;32;33490;-81
2022/05/15 00:53:02;;;;;;;7.18;4.05;;;;;;;12.36;68.52;99506.81;4454600;32;33999;-81
2022/05/15 00:55:36;;;;;;;6.22;3.85;;;;;;;12.07;69.95;99510.69;4453894;32;35028;-81
2022/05/15 00:58:09;;;;;;;6.75;4.05;;;;;;;12.51;68.06;99506.56;4447527;32;34759;-81
2022/05/15 01:00:39;;;;;;;6.68;4.55;;;;;;;12.58;67.95;99507.31;4441541;32;33110;-81
2022/05/15 01:03:09;;;;;;;6.32;4.75;;;;;;;12.91;66.49;99503.28;4440813;32;33967;-81
2022/05/15 01:05:40;;;;;;;7.75;4.55;;;;;;;12.69;67.15;99503.66;4454553;32;34823;-81
2022/05/15 01:08:08;;;;;;;5.05;3.83;;;;;;;12.96;66.08;99495.38;4455370;32;34445;-81
2022/05/15 01:10:40;;;;;;;7.00;3.40;;;;;;;13.31;65.11;99502.59;4452830;32;33572;-81
2022/05/15 01:13:10;;;;;;;5.97;3.40;;;;;;;13.59;63.79;99496.81;4455572;32;33965;-81
2022/05/15 01:15:39;;;;;;;7.37;3.30;;;;;;;13.35;64.95;99504.25;4456496;32;35905;-81
2022/05/15 01:18:08;;;;;;;6.18;3.40;;;;;;;13.28;65.24;99500.84;4460386;32;34408;-81
2022/05/15 01:20:38;;;;;;;4.37;2.92;;;;;;;12.70;66.59;99497.53;4456707;32;34189;-81
2022/05/15 01:23:06;;;;;;;7.53;3.83;;;;;;;13.13;65.74;99500.28;4458250;32;32568;-81
2022/05/15 01:25:36;;;;;;;4.55;2.97;;;;;;;13.39;63.91;99492.81;4440812;32;34534;-81
2022/05/15 01:28:11;;;;;;;6.60;2.97;;;;;;;13.54;63.17;99491.66;4458671;32;34581;-81
2022/05/15 01:30:42;;;;;;;7.20;3.62;;;;;;;12.49;65.95;99497.87;4456574;32;33577;-81
2022/05/15 01:33:11;;;;;;;6.82;3.12;;;;;;;13.15;64.29;99498.50;4455367;32;34360;-80
2022/05/15 01:35:39;;;;;;;4.45;3.10;;;;;;;13.16;64.24;99500.22;4462368;32;35872;-81
2022/05/15 01:38:08;;;;;;;7.90;3.58;;;;;;;12.86;64.95;99502.50;4454450;32;35300;-81
2022/05/15 01:40:37;;;;;;;7.78;3.20;;;;;;;12.77;65.62;99505.28;4460718;32;33596;-81
2022/05/15 01:43:06;;;;;;;6.35;3.45;;;;;;;12.75;65.54;99499.22;4451402;32;33842;-81
2022/05/15 01:45:35;;;;;;;4.53;3.00;;;;;;;12.71;65.84;99506.25;4440401;32;35106;-80
2022/05/15 01:48:04;;;;;;;5.28;3.28;;;;;;;12.90;65.23;99499.81;4458636;32;34499;-80
2022/05/15 01:50:34;;;;;;;4.18;2.87;;;;;;;12.56;66.40;99504.72;4456814;32;33463;-81
2022/05/15 01:53:02;;;;;;;6.12;3.17;;;;;;;12.52;66.71;99510.91;4450991;32;33574;-81
2022/05/15 01:55:30;;;;;;;7.57;3.20;;;;;;;12.27;67.63;99510.44;4468655;32;35057;-80
2022/05/15 01:57:58;;;;;;;5.95;3.10;;;;;;;12.68;66.23;99511.50;4452080;32;34373;-81
2022/05/15 02:00:27;;;;;;;6.55;3.70;;;;;;;12.77;65.89;99510.50;4454192;32;34272;-81
2022/05/15 02:02:56;;;;;;;6.12;3.60;;;;;;;12.03;68.62;99514.25;4453877;32;33796;-80
2022/05/15 02:05:24;;;;;;;6.75;3.35;;;;;;;12.36;67.36;99504.22;4454849;32;35126;-81
2022/05/15 02:07:53;;;;;;;5.68;3.42;;;;;;;12.45;66.98;99506.66;4454222;32;34459;-81
2022/05/15 02:10:22;;;;;;;4.90;3.50;;;;;;;12.10;68.12;99505.44;4454007;32;33284;-81
2022/05/15 02:12:50;;;;;;;8.38;3.47;;;;;;;12.25;67.94;99506.97;4454192;32;34663;-81
2022/05/15 02:15:18;;;;;;;7.68;3.70;;;;;;;12.22;67.47;99500.03;4454253;32;34891;-81
2022/05/15 02:17:47;;;;;;;5.07;3.15;;;;;;;11.28;71.34;99508.19;4454316;32;35178;-81
2022/05/15 02:20:16;;;;;;;6.47;3.60;;;;;;;12.12;68.28;99506.28;4470129;32;33390;-81
2022/05/15 02:22:45;;;;;;;8.38;3.50;;;;;;;12.23;67.54;99504.38;4467825;32;34668;-81
2022/05/15 02:25:14;;;;;;;4.15;3.22;;;;;;;12.30;67.54;99506.03;4453138;32;34972;-81
2022/05/15 02:27:43;;;;;;;6.37;3.45;;;;;;;11.76;69.96;99503.25;4453183;32;34511;-80
2022/05/15 02:30:12;;;;;;;6.20;3.55;;;;;;;11.82;70.03;99503.16;4453144;32;33511;-81
2022/05/15 02:32:41;;;;;;;5.68;3.65;;;;;;;11.41;70.49;99508.91;4448922;32;33917;-87
2022/05/15 02:35:10;;;;;;;6.97;3.35;;;;;;;11.58;70.66;99509.59;4452876;32;35710;-92
2022/05/15 02:37:41;;;;;;;5.40;3.95;;;;;;;11.04;72.31;99511.91;4453653;32;34464;-86
2022/05/15 02:40:10;;;;;;;5.50;4.05;;;;;;;11.71;71.39;99512.87;4440343;32;32633;-90
2022/05/15 02:42:38;;;;;;;5.62;4.07;;;;;;;11.85;69.80;99510.09;4452724;32;34813;-80
2022/05/15 02:45:07;;;;;;;6.30;3.70;;;;;;;11.89;70.15;99517.00;4453911;32;35201;-93
2022/05/15 02:47:35;;;;;;;9.57;3.53;;;;;;;11.99;69.55;99518.66;4469429;32;35174;-93
2022/05/15 02:52:53;;;;;;;6.90;3.35;;;;;;;12.24;68.32;99523.50;4441818;32;32902;-84
2022/05/15 02:55:23;;;;;;;4.75;3.12;;;;;;;12.62;67.01;99529.91;4453800;32;34946;-88
2022/05/15 02:57:52;;;;;;;8.55;3.50;;;;;;;12.38;67.94;99528.53;4453101;32;33474;-93
2022/05/15 03:00:22;;;;;;;10.15;3.92;;;;;;;12.42;67.63;99528.44;4439963;32;34294;-90
2022/05/15 03:02:51;;;;;;;4.53;3.35;;;;;;;12.58;66.94;99531.69;4442787;32;34944;-92
2022/05/15 03:05:20;;;;;;;9.60;3.70;;;;;;;12.44;67.23;99528.44;4453546;32;34172;-92
2022/05/15 03:07:48;;;;;;;6.47;3.58;;;;;;;12.45;67.34;99531.03;4454156;32;35220;-81
2022/05/15 03:10:19;;;;;;;7.12;3.92;;;;;;;11.46;70.85;99534.03;4455126;32;34085;-88
2022/05/15 03:12:48;;;;;;;6.03;3.50;;;;;;;12.02;69.28;99533.38;4454978;32;33684;-77
2022/05/15 03:15:16;;;;;;;7.57;4.05;;;;;;;12.12;68.83;99535.00;4455365;32;35265;-85
2022/05/15 03:17:45;;;;;;;5.10;3.60;;;;;;;11.90;69.69;99535.28;4455367;32;34405;-77
2022/05/15 03:20:15;;;;;;;6.05;3.78;;;;;;;11.97;69.48;99541.28;4456527;32;34047;-82
2022/05/15 03:22:44;;;;;;;6.43;4.10;;;;;;;11.77;70.64;99533.69;4455656;32;34615;-78
2022/05/15 03:25:12;;;;;;;4.80;3.60;;;;;;;11.57;71.29;99539.13;4454938;32;34743;-77
2022/05/15 03:27:42;;;;;;;6.35;3.70;;;;;;;11.24;72.58;99537.75;4454816;32;34527;-83
2022/05/15 03:30:10;;;;;;;8.85;4.10;;;;;;;10.57;75.89;99540.06;4458892;32;33384;-78
2022/05/15 03:32:40;;;;;;;5.47;3.78;;;;;;;11.30;73.33;99542.94;4463753;32;34850;-79
2022/05/15 03:35:09;;;;;;;4.97;3.58;;;;;;;11.94;70.07;99536.97;4469153;32;34960;-81
2022/05/15 03:37:38;;;;;;;7.90;4.25;;;;;;;11.66;71.58;99536.41;4471184;32;34557;-77
2022/05/15 03:40:08;;;;;;;5.43;3.75;;;;;;;10.35;77.39;99534.19;4455723;32;33579;-77
2022/05/15 03:42:37;;;;;;;6.00;4.12;;;;;;;10.23;78.94;99545.50;4470905;32;35392;-77
2022/05/15 03:45:06;;;;;;;6.18;3.87;;;;;;;11.65;73.04;99539.06;4442152;32;35151;-78
2022/05/15 03:47:35;;;;;;;5.00;3.78;;;;;;;11.22;73.90;99536.91;4454908;32;35134;-85
2022/05/15 03:50:07;;;;;;;5.00;3.78;;;;;;;11.04;75.62;99545.78;4465425;32;33497;-78
2022/05/15 03:52:36;;;;;;;7.70;3.85;;;;;;;10.77;77.04;99548.59;4457211;32;33718;-77
2022/05/15 03:55:04;;;;;;;6.75;4.25;;;;;;;10.56;78.79;99554.00;4469751;32;35278;-78
2022/05/15 03:57:32;;;;;;;7.40;3.65;;;;;;;12.05;72.94;99549.91;4457010;32;34407;-79
2022/05/15 04:00:01;;;;;;;6.03;4.00;;;;;;;12.07;71.97;99550.72;4457394;32;33406;-79
2022/05/15 04:02:39;;;;;;;5.32;4.00;;;;;;;12.63;70.90;99552.53;4448519;32;33184;-77
2022/05/15 04:05:09;;;;;;;9.68;4.45;;;;;;;12.50;71.52;99557.94;4451729;32;34939;-77
2022/05/15 04:07:42;;;;;;;7.00;4.82;;;;;;;12.74;70.80;99562.81;4455315;32;34575;-76
2022/05/15 04:10:12;;;;;;;4.68;3.35;;;;;;;12.73;71.37;99563.72;4455685;32;34262;-76
2022/05/15 04:12:41;;;;;;;7.53;4.47;;;;;;;12.76;71.42;99569.75;4470830;32;34011;-77
2022/05/15 04:15:11;;;;;;;5.85;4.00;;;;;;;11.71;73.92;99562.44;4455532;32;34896;-77
2022/05/15 04:17:44;;;;;;;15.63;12.20;;;;;;;12.54;71.39;99563.97;4444064;32;34385;-79
2022/05/15 04:20:15;;;;;;;6.75;4.62;;;;;;;12.68;72.19;99562.00;4453883;32;33000;-76
2022/05/15 04:22:45;;;;;;;8.00;5.85;;;;;;;12.93;74.64;99574.69;4455104;32;33888;-77
2022/05/15 04:25:13;;;;;;;5.40;3.78;;;;;;;14.07;68.99;99575.19;4467419;32;34624;-77
2022/05/15 04:27:42;;;;;;;5.68;3.95;;;;;;;14.39;69.60;99571.84;4456730;32;35237;-78
2022/05/15 04:30:16;;;;;;;5.05;3.78;;;;;;;14.90;67.33;99575.94;4430443;32;34158;-78
2022/05/15 04:32:46;;;;;;;10.82;7.78;;;;;;;14.65;69.71;99575.69;4454490;32;34851;-77
2022/05/15 04:35:15;;;;;;;23.85;15.45;;;;;;;14.79;68.86;99577.97;4454860;32;35218;-78
2022/05/15 04:37:43;;;;;;;16.80;12.37;;;;;;;15.48;64.56;99580.59;4454781;32;34327;-78
2022/05/15 04:40:13;;;;;;;19.80;13.52;;;;;;;15.45;67.15;99576.28;4455628;32;34332;-78
2022/05/15 04:42:42;;;;;;;14.00;9.40;;;;;;;15.29;66.62;99581.06;4470422;32;33926;-76
2022/05/15 04:45:11;;;;;;;14.15;7.60;;;;;;;15.60;66.38;99585.50;4430811;32;35779;-76
2022/05/15 04:47:39;;;;;;;7.20;5.20;;;;;;;16.21;65.30;99585.53;4441272;32;34448;-76
2022/05/15 04:50:08;;;;;;;8.43;6.40;;;;;;;16.46;64.90;99583.00;4466675;32;32308;-77
2022/05/15 04:52:36;;;;;;;7.40;6.05;;;;;;;17.53;60.09;99583.03;4470508;32;33943;-77
2022/05/15 04:55:04;;;;;;;10.18;5.07;;;;;;;17.70;59.94;99590.34;4455302;32;34293;-76
2022/05/15 04:57:33;;;;;;;6.95;4.70;;;;;;;17.28;63.11;99593.56;4456653;32;35132;-76
2022/05/15 05:00:04;;;;;;;9.48;3.40;;;;;;;17.37;63.42;99600.28;4459085;32;34287;-77
2022/05/15 05:02:34;;;;;;;4.18;3.12;;;;;;;17.77;62.82;99593.59;4455054;32;33949;-76
2022/05/15 05:05:03;;;;;;;11.75;3.28;;;;;;;17.99;60.92;99588.44;4454593;32;35924;-76
2022/05/15 05:07:31;;;;;;;4.45;3.25;;;;;;;18.55;59.69;99595.09;4442560;32;34244;-77
2022/05/15 05:09:59;;;;;;;5.87;3.20;;;;;;;18.99;58.74;99600.41;4440674;32;33464;-77
2022/05/15 05:12:28;;;;;;;5.80;2.92;;;;;;;18.63;60.58;99600.91;4442325;32;33910;-77
2022/05/15 05:14:58;;;;;;;4.43;3.12;;;;;;;18.60;61.49;99602.81;4459374;32;35184;-76
2022/05/15 05:17:26;;;;;;;7.03;2.80;;;;;;;18.79;59.58;99600.31;4454890;32;34010;-77
2022/05/15 05:19:54;;;;;;;4.10;2.95;;;;;;;19.27;54.14;99602.75;4454574;32;33429;-76
2022/05/15 05:22:23;;;;;;;6.65;2.85;;;;;;;19.89;52.16;99597.47;4454141;32;34775;-77
2022/05/15 05:24:51;;;;;;;6.55;3.45;;;;;;;20.00;54.76;99602.25;4462827;32;35826;-76
2022/05/15 05:27:20;;;;;;;5.40;3.22;;;;;;;19.48;56.06;99600.97;4456617;32;34525;-76
2022/05/15 05:29:48;;;;;;;4.22;2.58;;;;;;;19.66;51.68;99601.09;4459804;32;33364;-76
2022/05/15 05:32:17;;;;;;;6.75;3.40;;;;;;;19.26;55.19;99608.09;4454653;32;34733;-76
2022/05/15 05:34:45;;;;;;;6.87;3.20;;;;;;;19.29;53.79;99605.31;4454789;32;35332;-76
2022/05/15 05:37:15;;;;;;;5.93;3.10;;;;;;;20.35;52.75;99610.34;4470312;32;35222;-76
2022/05/15 05:39:44;;;;;;;10.95;3.58;;;;;;;19.53;52.07;99613.97;4454670;32;33373;-76
2022/05/15 05:42:13;;;;;;;7.62;3.20;;;;;;;20.03;52.16;99615.31;4454692;32;33954;-77
2022/05/15 05:44:41;;;;;;;4.85;3.15;;;;;;;20.90;50.71;99607.72;4447791;32;35756;-77
2022/05/15 05:47:09;;;;;;;5.47;2.78;;;;;;;21.19;51.16;99611.59;4440905;32;35300;-76
2022/05/15 05:49:37;;;;;;;3.90;2.90;;;;;;;21.10;51.72;99609.38;4458010;32;33564;-76
2022/05/15 05:52:06;;;;;;;5.28;2.80;;;;;;;21.52;51.18;99613.47;4470103;32;33857;-76
2022/05/15 05:54:34;;;;;;;5.05;2.40;;;;;;;21.86;48.26;99609.03;4454844;32;35917;-77
2022/05/15 05:57:02;;;;;;;13.77;3.00;;;;;;;21.82;43.88;99610.16;4468698;32;34492;-77
2022/05/15 05:59:30;;;;;;;4.07;2.65;;;;;;;23.23;45.17;99609.44;4469211;32;34274;-77
2022/05/15 06:01:58;;;;;;;3.67;2.08;;;;;;;22.48;40.84;99606.63;4469958;32;34857;-80
2022/05/15 06:04:39;;;;;;;9.13;2.28;;;;;;;23.61;40.55;99602.78;4469096;32;35875;-77
2022/05/15 06:07:17;;;;;;;5.80;2.55;;;;;;;23.50;41.03;99611.41;4469928;32;35144;-77
2022/05/15 06:09:47;;;;;;;2.75;1.85;;;;;;;24.56;38.71;99607.53;4449666;32;32991;-76
2022/05/15 06:12:18;;;;;;;3.58;2.20;;;;;;;22.86;38.86;99613.34;4440525;32;34677;-77
2022/05/15 06:14:48;;;;;;;3.62;2.12;;;;;;;24.50;40.19;99617.72;4460276;32;35735;-77
2022/05/15 06:17:22;;;;;;;2.70;2.00;;;;;;;24.88;38.55;99619.72;4469967;32;35195;-77
2022/05/15 06:19:51;;;;;;;4.30;2.30;;;;;;;24.55;38.94;99618.31;4442234;32;32894;-77
2022/05/15 06:22:19;;;;;;;3.50;1.92;;;;;;;24.38;40.30;99620.19;4455917;32;33818;-77
2022/05/15 06:24:48;;;;;;;6.25;1.73;;;;;;;23.63;37.54;99624.81;4441693;32;35996;-77
2022/05/15 06:27:16;;;;;;;3.47;1.80;;;;;;;24.59;38.81;99620.66;4454610;32;34375;-77
2022/05/15 06:29:44;;;;;;;3.85;1.87;;;;;;;24.74;35.53;99621.50;4462331;32;34278;-77
2022/05/15 06:32:12;;;;;;;2.03;1.60;;;;;;;24.79;34.49;99618.50;4454034;32;34756;-81
2022/05/15 06:34:40;;;;;;;2.80;1.95;;;;;;;25.78;36.54;99620.75;4454335;32;35585;-81
2022/05/15 06:37:08;;;;;;;5.82;2.20;;;;;;;26.58;34.06;99617.81;4469623;32;34420;-81
2022/05/15 06:39:36;;;;;;;4.18;2.50;;;;;;;26.95;32.91;99615.13;4449631;32;33612;-80
2022/05/15 06:42:05;;;;;;;4.60;2.47;;;;;;;25.35;30.39;99621.06;4454853;32;34027;-81
2022/05/15 06:44:35;;;;;;;4.93;1.65;;;;;;;26.39;30.91;99623.62;4455628;32;34201;-81
2022/05/15 06:47:03;;;;;;;3.20;1.67;;;;;;;27.11;29.42;99616.62;4456225;32;34302;-82
2022/05/15 06:49:32;;;;;;;2.95;1.80;;;;;;;25.63;32.94;99624.53;4466016;32;33625;-82
2022/05/15 06:52:00;;;;;;;5.72;1.60;;;;;;;26.33;32.68;99617.88;4455867;32;33810;-81
2022/05/15 06:54:28;;;;;;;2.42;1.55;;;;;;;26.41;32.54;99618.19;4458906;32;35016;-81
2022/05/15 06:59:43;;;;;;;2.62;1.70;;;;;;;26.59;31.94;99624.00;4447083;32;33075;-81
2022/05/15 07:02:11;;;;;;;8.10;2.05;;;;;;;26.70;32.07;99620.56;4455803;32;33396;-81
2022/05/15 07:04:39;;;;;;;2.15;1.77;;;;;;;27.44;31.93;99621.28;4441292;32;35245;-80
2022/05/15 07:07:08;;;;;;;4.72;2.00;;;;;;;26.97;32.19;99617.69;4455752;32;34508;-81
2022/05/15 07:09:37;;;;;;;6.55;1.60;;;;;;;26.72;33.27;99621.31;4445274;32;33861;-81
2022/05/15 07:12:06;;;;;;;3.95;1.70;;;;;;;25.69;32.23;99627.59;4444209;32;34719;-82
2022/05/15 07:14:35;;;;;;;3.75;1.98;;;;;;;26.72;33.12;99618.63;4446793;32;35088;-81
2022/05/15 07:17:03;;;;;;;3.92;1.77;;;;;;;26.44;34.95;99620.63;4471244;32;34437;-81
2022/05/15 07:19:32;;;;;;;4.03;1.60;;;;;;;26.78;32.75;99624.38;4468614;32;33621;-81
2022/05/15 07:22:00;;;;;;;3.90;1.80;;;;;;;26.85;34.20;99619.44;4440860;32;34656;-81
2022/05/15 07:24:29;;;;;;;8.80;2.12;;;;;;;27.03;32.07;99623.41;4443201;32;35066;-81
2022/05/15 07:26:57;;;;;;;3.15;1.80;;;;;;;27.58;32.92;99622.88;4471256;32;35055;-82
2022/05/15 07:29:25;;;;;;;5.20;2.35;;;;;;;27.80;30.42;99620.25;4456038;32;34252;-82
2022/05/15 07:31:54;;;;;;;3.40;1.90;;;;;;;28.59;28.79;99616.75;4464826;32;34701;-82
2022/05/15 07:34:22;;;;;;;6.87;2.08;;;;;;;28.13;32.40;99623.97;4453289;32;34962;-81
2022/05/15 07:36:52;;;;;;;7.37;1.90;;;;;;;27.76;33.71;99621.47;4455568;32;34446;-81
2022/05/15 07:39:21;;;;;;;3.95;2.53;;;;;;;28.20;30.59;99618.09;4455171;32;33531;-81
2022/05/15 07:41:49;;;;;;;4.43;2.47;;;;;;;28.66;29.78;99620.66;4454311;32;33852;-81
2022/05/15 07:44:17;;;;;;;4.65;1.75;;;;;;;27.91;31.93;99618.59;4455411;32;34693;-81
2022/05/15 07:46:46;;;;;;;4.70;1.67;;;;;;;28.52;28.83;99619.06;4471001;32;34410;-81
2022/05/15 07:49:15;;;;;;;5.03;1.70;;;;;;;28.12;29.35;99622.25;4450447;32;34115;-80
2022/05/15 07:51:46;;;;;;;3.25;2.25;;;;;;;29.10;28.14;99615.22;4457321;32;34698;-81
2022/05/15 07:54:16;;;;;;;2.45;1.67;;;;;;;28.48;26.78;99622.09;4455444;32;35046;-81
2022/05/15 07:56:44;;;;;;;3.97;2.05;;;;;;;29.81;29.43;99620.87;4455398;32;34455;-81
2022/05/15 07:59:13;;;;;;;5.68;1.58;;;;;;;28.95;26.94;99620.06;4454979;32;34344;-82
2022/05/15 08:01:42;;;;;;;3.37;2.00;;;;;;;29.06;26.54;99620.00;4454728;32;33893;-81
2022/05/15 08:04:11;;;;;;;8.85;1.70;;;;;;;29.91;25.42;99618.22;4455525;32;34811;-81
2022/05/15 08:09:26;;;;;;;2.40;1.60;;;;;;;28.07;29.73;99621.75;4469758;32;33532;-81
2022/05/15 08:12:00;;;;;;;4.70;1.75;;;;;;;28.63;27.83;99612.84;4470893;32;34610;-81
2022/05/15 08:14:29;;;;;;;3.45;1.55;;;;;;;29.03;28.56;99616.72;4455629;32;35060;-82
2022/05/15 08:16:57;;;;;;;3.37;1.73;;;;;;;28.54;28.52;99622.50;4470720;32;35184;-81
2022/05/15 08:24:59;;;;;;;5.43;2.00;;;;;;;29.04;25.22;99613.09;4465650;32;35973;-81
2022/05/15 08:27:28;;;;;;;4.22;1.70;;;;;;;28.83;27.80;99616.56;4453984;32;35227;-81
2022/05/15 08:29:56;;;;;;;3.95;1.77;;;;;;;28.73;29.16;99621.84;4457975;32;33500;-81
2022/05/15 08:32:24;;;;;;;3.10;1.48;;;;;;;29.07;26.13;99611.00;4470700;32;34379;-81
2022/05/15 08:34:52;;;;;;;2.75;1.60;;;;;;;29.77;26.95;99626.63;4462948;32;35913;-81
2022/05/15 08:37:20;;;;;;;3.15;1.50;;;;;;;30.09;25.80;99620.28;4470565;32;34273;-81
2022/05/15 08:39:48;;;;;;;2.70;1.60;;;;;;;30.52;26.84;99621.91;4440349;32;32824;-82
2022/05/15 08:42:20;;;;;;;4.12;1.50;;;;;;;30.06;26.23;99632.16;4455056;32;33944;-82
2022/05/15 08:44:51;;;;;;;4.95;1.70;;;;;;;29.54;27.82;99620.53;4456416;32;35765;-81
2022/05/15 08:47:33;;;;;;;2.17;1.50;;;;;;;29.36;28.20;99622.97;4470624;32;34402;-81
2022/05/15 08:50:16;;;;;;;5.37;1.45;;;;;;;30.25;26.98;99621.50;4455088;32;33496;-81
2022/05/15 08:52:59;;;;;;;2.95;1.40;;;;;;;29.61;28.58;99627.09;4469695;32;33899;-82
2022/05/15 08:55:47;;;;;;;3.40;1.50;;;;;;;29.46;27.66;99621.22;4433913;32;34133;-81
2022/05/15 08:58:25;;;;;;;4.90;1.83;;;;;;;29.51;27.07;99627.03;4456967;32;35279;-81
2022/05/15 09:00:54;;;;;;;3.72;1.50;;;;;;;28.66;25.67;99626.00;4455080;32;34272;-82
2022/05/15 09:03:25;;;;;;;2.33;1.45;;;;;;;29.25;27.04;99611.31;4456445;32;34038;-83
2022/05/15 09:06:03;;;;;;;2.42;1.50;;;;;;;29.02;27.75;99615.88;4446124;32;34291;-82
2022/05/15 09:08:46;;;;;;;3.03;1.37;;;;;;;28.65;27.97;99615.41;4453691;32;35090;-81
2022/05/15 09:11:36;;;;;;;3.70;1.23;;;;;;;28.53;26.76;99609.19;4454382;32;33323;-81
2022/05/15 09:14:41;;;;;;;3.17;1.30;;;;;;;29.80;24.70;99615.66;4454845;32;34064;-81
2022/05/15 09:17:16;;;;;;;2.50;1.25;;;;;;;30.02;25.17;99611.91;4454952;32;35209;-82
2022/05/15 09:19:50;;;;;;;3.15;1.50;;;;;;;29.67;26.21;99616.69;4441045;32;34103;-81
2022/05/15 09:22:19;;;;;;;2.47;1.70;;;;;;;29.79;26.52;99619.31;4454373;32;33410;-81
2022/05/15 09:24:52;;;;;;;4.28;1.70;;;;;;;30.35;23.08;99609.97;4453047;32;34014;-81
2022/05/15 09:27:23;;;;;;;2.60;1.60;;;;;;;30.23;25.30;99612.72;4453705;32;34985;-82
2022/05/15 09:29:57;;;;;;;3.12;1.30;;;;;;;29.38;25.25;99615.62;4440484;32;32424;-80
2022/05/15 09:32:44;;;;;;;2.37;1.23;;;;;;;29.73;25.13;99619.81;4453518;32;33313;-81
2022/05/15 09:35:19;;;;;;;2.83;1.40;;;;;;;29.78;26.40;99612.25;4455294;32;33910;-81
2022/05/15 09:43:52;;;;;;;4.97;1.50;;;;;;;30.60;24.65;99614.84;4470262;32;34206;-83
2022/05/15 09:46:24;;;;;;;2.28;1.40;;;;;;;30.03;24.67;99613.63;4444778;32;33785;-82
2022/05/15 09:48:55;;;;;;;3.60;1.87;;;;;;;30.57;23.32;99620.50;4440205;32;35093;-81
2022/05/15 09:51:32;;;;;;;3.30;1.50;;;;;;;31.09;24.86;99604.16;4465094;32;35102;-80
2022/05/15 09:54:00;;;;;;;5.05;1.60;;;;;;;30.25;25.62;99610.75;4451894;32;33625;-81
2022/05/15 09:56:32;;;;;;;4.95;1.62;;;;;;;30.83;24.56;99616.41;4454160;32;33882;-81
2022/05/15 09:59:10;;;;;;;3.37;1.52;;;;;;;31.15;24.84;99608.97;4453495;32;35300;-82
2022/05/15 10:01:56;;;;;;;4.05;1.62;;;;;;;29.85;24.96;99603.50;4454245;32;35205;-82
2022/05/15 10:04:30;;;;;;;6.15;2.37;;;;;;;30.38;25.41;99601.62;4456223;32;33416;-82
2022/05/15 10:07:04;;;;;;;3.80;2.12;;;;;;;30.03;26.53;99601.03;4454571;32;34649;-87
2022/05/15 10:09:35;;;;;;;4.50;1.40;;;;;;;29.69;26.37;99600.44;4454534;32;35751;-82
2022/05/15 10:12:27;;;;;;;3.62;1.40;;;;;;;30.76;26.21;99598.19;4451568;32;33494;-82
2022/05/15 10:14:59;;;;;;;5.45;1.37;;;;;;;30.61;25.65;99596.87;4452281;32;33571;-85
2022/05/15 10:17:27;;;;;;;3.25;1.77;;;;;;;30.57;25.88;99595.47;4469274;32;34060;-80
2022/05/15 10:20:00;;;;;;;3.75;1.42;;;;;;;30.98;25.27;99585.47;4446489;32;35892;-81
2022/05/15 10:22:42;;;;;;;3.08;1.58;;;;;;;31.28;25.53;99595.22;4440252;32;34762;-82
2022/05/15 10:25:28;;;;;;;4.82;1.70;;;;;;;31.67;23.94;99591.63;4449567;32;185203;-85
2022/05/15 10:28:24;;;;;;;3.78;1.58;;;;;;;31.82;26.01;99589.31;4469728;32;34105;-84
2022/05/15 10:31:36;;;;;;;4.83;1.90;;;;;;;31.30;26.28;99592.38;4457731;32;34620;-81
2022/05/15 10:34:12;;;;;;;2.72;1.58;;;;;;;31.78;22.67;99580.69;4469638;32;35145;-81
2022/05/15 10:36:47;;;;;;;6.00;1.65;;;;;;;31.05;25.76;99578.53;4468207;32;33001;-82
2022/05/15 10:39:46;;;;;;;3.50;1.50;;;;;;;31.17;25.00;99574.69;4469582;32;33903;-82
2022/05/15 10:42:37;;;;;;;4.32;1.83;;;;;;;30.48;26.94;99582.84;4454450;32;35366;-83
2022/05/15 10:45:11;;;;;;;2.53;1.37;;;;;;;30.27;24.37;99575.69;4454754;32;34327;-80
2022/05/15 10:47:53;;;;;;;3.10;1.50;;;;;;;30.62;24.70;99579.78;4454128;32;33786;-83
2022/05/15 10:50:32;;;;;;;1.90;1.42;;;;;;;31.73;24.14;99564.97;4454145;32;34066;-81
2022/05/15 10:59:14;;;;;;;2.97;1.50;;;;;;;31.30;25.83;99563.62;4456398;32;33356;-88
2022/05/15 11:01:52;;;;;;;3.30;1.60;;;;;;;30.81;26.37;99558.28;4463207;32;33962;-89
2022/05/15 11:04:49;;;;;;;9.50;1.90;;;;;;;30.51;26.71;99563.75;4455058;32;35818;-85
2022/05/15 11:07:27;;;;;;;4.78;1.58;;;;;;;31.03;24.47;99556.31;4466914;32;35052;-84
2022/05/15 11:10:04;;;;;;;6.22;1.75;;;;;;;29.99;25.12;99556.66;4455181;32;33275;-89
2022/05/15 11:12:59;;;;;;;3.62;1.30;;;;;;;30.40;24.87;99556.66;4452987;32;34722;-86
2022/05/15 11:15:34;;;;;;;2.40;1.27;;;;;;;30.36;26.38;99563.31;4438037;32;35368;-90
2022/05/15 11:18:14;;;;;;;3.40;1.23;;;;;;;29.98;26.45;99559.47;4453532;32;34391;-82
2022/05/15 11:20:47;;;;;;;5.03;1.70;;;;;;;30.60;26.12;99557.53;4453911;32;33413;-82
2022/05/15 11:23:22;;;;;;;3.05;1.60;;;;;;;31.34;24.56;99542.66;4454861;32;34400;-82
2022/05/15 11:25:57;;;;;;;3.42;1.52;;;;;;;31.04;24.23;99536.47;4449995;32;35786;-82
2022/05/15 11:28:43;;;;;;;5.10;1.70;;;;;;;30.77;22.62;99548.78;4440447;32;35158;-81
2022/05/15 11:31:32;;;;;;;4.90;1.27;;;;;;;30.27;23.99;99539.91;4440817;32;33464;-83
2022/05/15 11:34:05;;;;;;;5.65;1.90;;;;;;;30.82;23.61;99537.63;4441790;32;33009;-82
2022/05/15 11:36:37;;;;;;;1.92;1.48;;;;;;;30.96;25.07;99533.69;4454742;32;35035;-81
2022/05/15 11:39:12;;;;;;;3.72;1.50;;;;;;;30.94;23.07;99536.50;4454276;32;35114;-90
2022/05/15 11:41:43;;;;;;;1.90;1.40;;;;;;;31.74;21.44;99528.13;4455604;32;32815;-82
2022/05/15 11:44:14;;;;;;;3.03;1.70;;;;;;;31.65;25.22;99523.63;4466940;32;33976;-82
2022/05/15 11:46:45;;;;;;;3.03;1.50;;;;;;;31.81;26.50;99523.84;4468894;32;35153;-82
2022/05/15 11:49:23;;;;;;;5.65;1.30;;;;;;;31.35;24.95;99528.22;4465684;32;34476;-83
2022/05/15 11:52:06;;;;;;;1.85;1.40;;;;;;;30.89;24.46;99532.53;4465093;32;33394;-81
2022/05/15 11:54:47;;;;;;;7.10;1.40;;;;;;;30.74;24.75;99530.25;4461157;32;33939;-83
2022/05/15 11:57:39;;;;;;;2.65;1.17;;;;;;;29.77;25.31;99544.31;4466068;32;34945;-81
2022/05/15 12:00:11;;;;;;;4.07;1.40;;;;;;;30.01;23.73;99525.16;4458546;32;33991;-82
2022/05/15 12:03:02;;;;;;;3.05;1.60;;;;;;;31.03;25.66;99526.72;4456831;32;33267;-83
2022/05/15 12:05:36;;;;;;;3.15;1.48;;;;;;;30.48;23.91;99519.22;4466901;32;33938;-81
2022/05/15 12:08:17;;;;;;;4.93;2.22;;;;;;;30.77;25.42;99518.38;4456746;32;34898;-82
2022/05/15 12:10:46;;;;;;;3.22;1.40;;;;;;;30.79;24.86;99519.91;4469646;32;33828;-83
2022/05/15 12:13:33;;;;;;;2.92;1.48;;;;;;;31.02;23.70;99514.25;4454569;32;34240;-82
2022/05/15 12:16:19;;;;;;;5.80;1.40;;;;;;;29.99;25.17;99513.69;4462396;32;34021;-82
2022/05/15 12:18:55;;;;;;;3.47;1.40;;;;;;;30.63;26.25;99506.19;4462836;32;35996;-82
2022/05/15 12:21:30;;;;;;;3.97;1.40;;;;;;;30.04;26.17;99508.78;4469253;32;34467;-83